< < Back
Terminal Aerodrome Forecast


Current Version              Previous Versions:   1  2  3  4  5  6  7  8  9  

Terminal Aerodrome Forecast

087
FTUS42 KILM 220500
TAFILM
TAF
KILM 220524Z 2206/2306 03008KT 5SM -RA BR BKN008 OVC012
      TEMPO 2206/2208 6SM -RA BR
     FM221700 36007KT P6SM OVC006
     FM230000 35004KT 2SM BR OVC004=

Latest METAR

657
SAUS70 KWBC 220500 RRE
MTRILM
METAR KILM 220453Z 03009KT 7SM OVC005 07/06 A3015 RMK AO2 SLP208
T00670056 401000022


USA.gov is the U.S. government's official web portal to all federal, state and local government web resources and services.